Time;durP1;ratioP1;P1;durP2;ratioP2;P2;SDS_P1;SDS_P2;PMS_P1;PMS_P2;Temp;Humidity;BMP_temperature;BMP_pressure;BME280_temperature;BME280_humidity;BME280_pressure;Samples;Min_cycle;Max_cycle;Signal;HPM_P1;HPM_P2
2021/11/06 00:01:15;;;;;;;7.83;1.30;;;;;;;7.12;100.00;99583.14;1705543;82;21071;-68
2021/11/06 00:03:42;;;;;;;1.95;0.93;;;;;;;7.12;100.00;99579.24;1707784;82;20919;-69
2021/11/06 00:06:08;;;;;;;3.00;1.10;;;;;;;7.10;100.00;99584.93;1699344;82;20994;-68
2021/11/06 00:11:17;;;;;;;4.53;1.50;;;;;;;7.13;100.00;99575.73;1832028;76;22836;-67
2021/11/06 00:13:45;;;;;;;2.72;1.10;;;;;;;7.08;100.00;99591.46;1815878;78;22716;-67
2021/11/06 00:16:12;;;;;;;;;;;;;;;7.08;100.00;99582.83;1814542;76;21097;-67
2021/11/06 00:18:39;;;;;;;5.65;1.77;;;;;;;7.06;100.00;99579.47;1813432;78;20116;-67
2021/11/06 00:21:05;;;;;;;4.53;1.20;;;;;;;7.05;100.00;99585.53;1817510;78;21059;-67
2021/11/06 00:23:34;;;;;;;2.75;1.20;;;;;;;7.04;100.00;99583.85;1815322;78;20969;-67
2021/11/06 00:26:01;;;;;;;2.72;1.10;;;;;;;7.02;100.00;99576.56;1817284;78;21032;-68
2021/11/06 00:28:28;;;;;;;3.85;1.22;;;;;;;6.99;100.00;99584.00;1811160;78;21999;-68
2021/11/06 00:30:55;;;;;;;4.62;2.08;;;;;;;6.98;100.00;99581.48;1815721;78;21009;-69
2021/11/06 00:33:22;;;;;;;6.37;1.43;;;;;;;6.97;100.00;99573.27;1769851;78;21070;-69
2021/11/06 00:35:48;;;;;;;5.33;1.47;;;;;;;6.97;100.00;99579.77;1812617;78;21220;-68
2021/11/06 00:38:17;;;;;;;3.72;1.42;;;;;;;6.95;100.00;99589.76;1813195;77;21043;-68
2021/11/06 00:40:44;;;;;;;2.37;0.90;;;;;;;6.94;100.00;99585.45;1815978;78;21877;-68
2021/11/06 00:43:11;;;;;;;3.52;0.93;;;;;;;6.94;100.00;99584.15;1810498;78;21012;-68
2021/11/06 00:45:37;;;;;;;3.08;1.10;;;;;;;6.93;100.00;99582.47;1812646;78;21013;-68
2021/11/06 00:48:04;;;;;;;4.80;1.23;;;;;;;6.93;100.00;99572.09;1813929;76;21836;-69
2021/11/06 00:50:31;;;;;;;5.78;1.40;;;;;;;6.94;100.00;99584.15;1822975;78;20978;-69
2021/11/06 00:52:59;;;;;;;1.70;0.78;;;;;;;6.95;100.00;99586.32;1812464;78;21142;-69
2021/11/06 00:55:26;;;;;;;4.28;1.20;;;;;;;6.99;100.00;99577.97;1819566;78;20973;-69
2021/11/06 00:57:55;;;;;;;1.52;0.93;;;;;;;6.98;100.00;99590.11;1819840;78;21012;-69
2021/11/06 01:00:23;;;;;;;2.67;1.05;;;;;;;6.99;100.00;99593.55;1808842;78;21044;-69
2021/11/06 01:02:51;;;;;;;2.47;0.90;;;;;;;7.00;100.00;99593.93;1792046;78;20910;-69
2021/11/06 01:05:19;;;;;;;5.25;1.55;;;;;;;7.00;100.00;99591.33;1818740;78;22598;-68
2021/11/06 01:07:46;;;;;;;2.27;0.75;;;;;;;7.01;100.00;99607.33;1817701;78;21021;-69
2021/11/06 01:10:16;;;;;;;2.12;1.22;;;;;;;6.99;100.00;99606.06;1813327;78;20961;-69
2021/11/06 01:12:43;;;;;;;3.47;0.88;;;;;;;7.00;100.00;99605.61;1802471;78;21036;-68
2021/11/06 01:15:12;;;;;;;5.95;1.00;;;;;;;6.98;100.00;99616.52;1801632;78;20970;-69
2021/11/06 01:17:39;;;;;;;6.97;1.32;;;;;;;6.94;100.00;99611.41;1802997;78;21551;-68
2021/11/06 01:20:07;;;;;;;5.70;1.33;;;;;;;6.92;100.00;99611.93;1802033;78;20993;-68
2021/11/06 01:22:34;;;;;;;4.22;1.30;;;;;;;6.92;100.00;99592.47;1801181;78;20946;-70
2021/11/06 01:26:25;;;;;;;6.62;1.10;;;;;;;6.92;100.00;99611.93;1869199;74;22626;-69
2021/11/06 01:28:52;;;;;;;3.65;1.32;;;;;;;6.88;100.00;99602.99;1825424;76;21050;-69
2021/11/06 01:31:18;;;;;;;4.30;0.85;;;;;;;6.88;100.00;99606.89;1824218;76;21018;-69
2021/11/06 01:33:45;;;;;;;3.95;1.00;;;;;;;6.87;100.00;99603.45;1829881;76;21547;-69
2021/11/06 01:36:12;;;;;;;1.52;0.50;;;;;;;6.90;100.00;99610.28;1819533;76;21052;-69
2021/11/06 01:38:41;;;;;;;2.12;0.70;;;;;;;6.90;100.00;99611.13;1829467;76;20987;-69
2021/11/06 01:41:11;;;;;;;4.28;1.10;;;;;;;6.88;100.00;99605.13;1737161;80;20996;-69
2021/11/06 01:43:39;;;;;;;2.37;1.00;;;;;;;6.88;100.00;99605.13;1714461;80;21540;-69
2021/11/06 01:46:09;;;;;;;1.50;0.75;;;;;;;6.90;100.00;99596.01;1718193;81;21093;-69
2021/11/06 01:48:38;;;;;;;5.53;0.53;;;;;;;6.91;100.00;99602.42;1710863;81;21050;-69
2021/11/06 01:51:05;;;;;;;2.52;0.90;;;;;;;6.93;100.00;99609.72;1718106;81;21009;-69
2021/11/06 01:53:32;;;;;;;1.37;0.55;;;;;;;6.95;100.00;99606.63;1716467;81;20954;-68
2021/11/06 01:55:59;;;;;;;5.03;0.80;;;;;;;7.00;100.00;99613.40;1716650;81;21460;-69
2021/11/06 01:58:29;;;;;;;2.67;1.20;;;;;;;7.03;100.00;99600.31;1713354;81;28269;-69
2021/11/06 02:00:57;;;;;;;2.87;0.80;;;;;;;7.07;100.00;99600.62;1715029;80;22315;-68
2021/11/06 02:03:24;;;;;;;6.72;0.98;;;;;;;7.08;100.00;99599.25;1716954;81;21373;-69
2021/11/06 02:05:52;;;;;;;7.20;1.12;;;;;;;7.10;100.00;99594.86;1712000;81;21002;-68
2021/11/06 02:08:19;;;;;;;3.30;0.80;;;;;;;7.14;100.00;99602.08;1713107;81;21066;-68
2021/11/06 02:13:36;;;;;;;5.70;1.12;;;;;;;7.17;100.00;99603.30;1681945;83;21073;-68
2021/11/06 02:16:02;;;;;;;3.45;0.98;;;;;;;7.18;100.00;99602.39;1680347;83;21010;-68
2021/11/06 02:18:29;;;;;;;2.97;1.20;;;;;;;7.20;100.00;99608.38;1681754;83;21088;-68
2021/11/06 02:21:07;;;;;;;7.72;1.72;;;;;;;7.21;100.00;99597.08;1677576;83;22455;-68
2021/11/06 02:23:44;;;;;;;2.92;0.90;;;;;;;7.22;100.00;99598.77;1677861;83;21540;-68
2021/11/06 02:26:19;;;;;;;3.40;1.10;;;;;;;7.24;100.00;99602.16;1680585;83;21039;-68
2021/11/06 02:28:51;;;;;;;3.67;1.15;;;;;;;7.27;100.00;99598.16;1682754;83;21703;-69
2021/11/06 02:31:18;;;;;;;5.10;1.35;;;;;;;7.27;100.00;99594.27;1678371;83;20989;-69
2021/11/06 02:33:45;;;;;;;5.63;1.60;;;;;;;7.29;100.00;99592.47;1678418;83;21082;-69
2021/11/06 02:36:12;;;;;;;6.03;1.82;;;;;;;7.21;100.00;99578.91;1701127;83;21773;-69
2021/11/06 02:38:38;;;;;;;4.63;1.20;;;;;;;7.30;100.00;99591.55;1701319;83;21475;-69
2021/11/06 02:41:05;;;;;;;5.00;1.37;;;;;;;7.33;100.00;99603.13;1673639;83;21256;-68
2021/11/06 02:43:32;;;;;;;7.53;1.40;;;;;;;7.36;100.00;99600.88;1701468;82;20963;-69
2021/11/06 02:45:59;;;;;;;3.83;1.20;;;;;;;7.37;100.00;99603.43;1700566;84;21806;-69
2021/11/06 02:48:26;;;;;;;4.58;1.30;;;;;;;7.37;100.00;99596.94;1702117;82;20975;-69
2021/11/06 02:50:54;;;;;;;3.75;1.00;;;;;;;7.38;100.00;99610.31;1701453;82;21037;-70
2021/11/06 02:53:22;;;;;;;6.25;1.35;;;;;;;7.39;100.00;99600.34;1702186;82;21643;-69
2021/11/06 02:55:50;;;;;;;5.58;1.40;;;;;;;7.39;100.00;99601.63;1701084;83;20998;-69
2021/11/06 02:58:16;;;;;;;6.80;1.50;;;;;;;7.42;100.00;99601.94;1699249;84;21057;-69
2021/11/06 03:00:43;;;;;;;7.17;1.13;;;;;;;7.42;100.00;99592.01;1701477;83;21015;-69
2021/11/06 03:03:10;;;;;;;6.87;1.70;;;;;;;7.40;100.00;99600.72;1699647;83;21013;-69
2021/11/06 03:05:37;;;;;;;9.03;2.22;;;;;;;7.39;100.00;99601.63;1703241;82;20966;-69
2021/11/06 03:08:05;;;;;;;4.15;1.72;;;;;;;7.38;100.00;99609.02;1681095;82;21055;-69
2021/11/06 03:10:34;;;;;;;2.90;1.00;;;;;;;7.37;100.00;99608.62;1671554;84;21015;-69
2021/11/06 03:13:02;;;;;;;4.92;1.60;;;;;;;7.38;100.00;99617.26;1679615;83;21004;-69
2021/11/06 03:15:29;;;;;;;4.35;1.82;;;;;;;7.37;100.00;99609.92;1680011;83;20980;-69
2021/11/06 03:17:56;;;;;;;5.90;1.57;;;;;;;7.37;100.00;99600.83;1680965;83;21030;-69
2021/11/06 03:20:24;;;;;;;2.95;0.85;;;;;;;7.36;100.00;99603.47;1680267;83;21017;-69
2021/11/06 03:22:57;;;;;;;5.05;1.87;;;;;;;7.19;100.00;99593.69;1713814;82;21063;-69
2021/11/06 03:25:19;;;;;;;4.97;1.00;;;;;;;7.19;100.00;99593.69;1709753;82;20954;-69
2021/11/06 03:27:47;;;;;;;3.50;1.20;;;;;;;7.28;100.00;99619.35;1709930;82;20939;-69
2021/11/06 03:30:14;;;;;;;6.58;1.30;;;;;;;7.26;100.00;99628.94;1700265;82;21511;-69
2021/11/06 03:32:42;;;;;;;5.37;1.25;;;;;;;7.24;100.00;99628.13;1712290;82;26562;-69
2021/11/06 03:35:09;;;;;;;10.43;2.22;;;;;;;7.24;100.00;99629.89;1681928;83;26932;-69
2021/11/06 03:37:37;;;;;;;5.47;1.30;;;;;;;7.24;100.00;99628.13;1678154;83;20985;-69
2021/11/06 03:40:08;;;;;;;3.80;1.15;;;;;;;7.25;100.00;99642.80;1681257;83;21544;-67
2021/11/06 03:42:35;;;;;;;6.95;1.20;;;;;;;7.26;100.00;99641.92;1680583;83;20963;-69
2021/11/06 03:45:04;;;;;;;7.97;1.07;;;;;;;7.27;100.00;99635.81;1679199;83;20968;-69
2021/11/06 03:47:31;;;;;;;11.18;1.55;;;;;;;7.27;100.00;99638.41;1683205;83;22051;-69
2021/11/06 03:49:58;;;;;;;8.08;1.62;;;;;;;7.26;100.00;99634.13;1679476;83;20967;-69
2021/11/06 03:52:25;;;;;;;6.28;1.60;;;;;;;7.30;100.00;99628.37;1678326;83;21075;-68
2021/11/06 03:54:52;;;;;;;5.62;1.50;;;;;;;7.30;100.00;99628.37;1679641;83;21018;-69
2021/11/06 03:57:18;;;;;;;3.55;1.40;;;;;;;7.32;100.00;99646.89;1677280;83;20973;-69
2021/11/06 03:59:45;;;;;;;7.03;2.00;;;;;;;7.34;100.00;99637.31;1682215;83;21152;-69
2021/11/06 04:02:12;;;;;;;7.33;2.13;;;;;;;7.32;100.00;99632.61;1675311;83;21503;-69
2021/11/06 04:04:38;;;;;;;5.23;1.77;;;;;;;7.32;100.00;99633.91;1679760;83;20947;-69
2021/11/06 04:09:41;;;;;;;8.83;1.70;;;;;;;7.35;100.00;99636.39;1496203;94;21043;-69
2021/11/06 04:12:08;;;;;;;4.97;1.30;;;;;;;7.36;100.00;99629.45;1492958;94;21203;-69
2021/11/06 04:14:35;;;;;;;9.30;1.52;;;;;;;7.36;100.00;99627.69;1491107;94;21193;-69
2021/11/06 04:17:04;;;;;;;9.10;2.55;;;;;;;7.36;100.00;99626.39;1495384;94;21023;-69
2021/11/06 04:19:35;;;;;;;6.87;2.35;;;;;;;7.37;100.00;99634.59;1491557;94;21180;-69
2021/11/06 04:22:02;;;;;;;6.17;1.70;;;;;;;7.37;100.00;99647.59;1493559;94;21086;-69
2021/11/06 04:24:29;;;;;;;4.28;1.12;;;;;;;7.39;100.00;99639.30;1492190;94;26649;-69
2021/11/06 04:26:56;;;;;;;9.00;2.00;;;;;;;7.39;100.00;99643.20;1494734;94;21121;-69
2021/11/06 04:29:22;;;;;;;6.77;1.60;;;;;;;7.39;100.00;99648.39;1494990;94;21209;-68
2021/11/06 04:31:49;;;;;;;5.40;1.52;;;;;;;7.39;100.00;99648.39;1494689;94;21870;-68
2021/11/06 04:34:16;;;;;;;5.47;1.20;;;;;;;7.40;100.00;99649.23;1495477;94;21083;-68
2021/11/06 04:36:44;;;;;;;7.33;1.35;;;;;;;7.40;100.00;99644.03;1511133;93;21226;-69
2021/11/06 04:39:11;;;;;;;6.95;1.82;;;;;;;7.43;100.00;99649.58;1493526;94;20975;-69
2021/11/06 04:41:39;;;;;;;5.47;1.40;;;;;;;7.43;100.00;99649.58;1491780;93;21235;-68
2021/11/06 04:44:06;;;;;;;6.10;1.37;;;;;;;7.43;100.00;99658.67;1477449;94;21141;-69
2021/11/06 04:46:33;;;;;;;3.13;0.90;;;;;;;7.43;100.00;99658.67;1489963;93;21129;-68
2021/11/06 04:48:59;;;;;;;5.85;1.47;;;;;;;7.43;100.00;99663.86;1493478;93;21478;-69
2021/11/06 04:51:28;;;;;;;7.92;1.40;;;;;;;7.40;100.00;99660.47;1493293;93;21390;-68
2021/11/06 04:53:56;;;;;;;5.50;1.57;;;;;;;7.39;100.00;99657.48;1492854;93;21134;-68
2021/11/06 04:56:22;;;;;;;4.80;1.10;;;;;;;7.40;100.00;99664.36;1492485;93;21775;-68
2021/11/06 04:58:49;;;;;;;5.83;1.10;;;;;;;7.40;100.00;99673.45;1494008;94;21135;-69
2021/11/06 05:01:17;;;;;;;5.20;1.50;;;;;;;7.40;100.00;99668.72;1491775;94;21156;-69
2021/11/06 05:03:44;;;;;;;6.75;1.87;;;;;;;7.42;100.00;99671.23;1493193;93;21588;-68
2021/11/06 05:06:10;;;;;;;6.00;1.42;;;;;;;7.42;100.00;99667.34;1509677;91;21050;-69
2021/11/06 05:08:37;;;;;;;7.20;1.47;;;;;;;7.43;100.00;99671.66;1548269;91;22508;-69
2021/11/06 05:11:04;;;;;;;5.80;1.35;;;;;;;7.44;100.00;99678.54;1558434;90;21060;-68
2021/11/06 05:13:30;;;;;;;6.37;1.22;;;;;;;7.45;100.00;99680.22;1622919;85;21804;-68
2021/11/06 05:15:58;;;;;;;7.47;1.77;;;;;;;7.47;100.00;99668.03;1673999;84;21003;-69
2021/11/06 05:18:26;;;;;;;4.90;1.10;;;;;;;7.48;100.00;99669.72;1636810;85;26641;-68
2021/11/06 05:20:53;;;;;;;4.65;1.45;;;;;;;7.48;100.00;99669.30;1651594;84;20960;-69
2021/11/06 05:23:22;;;;;;;8.43;2.58;;;;;;;7.48;100.00;99660.63;1651612;85;21007;-69
2021/11/06 05:25:49;;;;;;;5.37;2.30;;;;;;;7.48;100.00;99669.30;1651772;84;21706;-68
2021/11/06 05:28:17;;;;;;;9.30;2.45;;;;;;;7.49;100.00;99668.84;1650367;85;20955;-69
2021/11/06 05:30:44;;;;;;;5.85;1.30;;;;;;;7.49;100.00;99666.23;1652536;85;21034;-68
2021/11/06 05:33:13;;;;;;;5.10;1.70;;;;;;;7.50;100.00;99683.51;1650575;85;21626;-68
2021/11/06 05:35:40;;;;;;;4.85;1.70;;;;;;;7.51;100.00;99677.44;1653196;85;21142;-69
2021/11/06 05:38:07;;;;;;;6.40;1.37;;;;;;;7.51;100.00;99682.63;1632167;85;21185;-69
2021/11/06 05:40:35;;;;;;;8.15;1.90;;;;;;;7.51;100.00;99673.08;1673419;84;21022;-68
2021/11/06 05:43:02;;;;;;;6.28;1.15;;;;;;;7.52;100.00;99685.16;1652990;85;21059;-69
2021/11/06 05:45:28;;;;;;;5.35;1.22;;;;;;;7.52;100.00;99686.91;1651606;85;21065;-68
2021/11/06 05:47:55;;;;;;;3.58;0.95;;;;;;;7.51;100.00;99695.63;1652887;85;21045;-67
2021/11/06 05:50:22;;;;;;;8.58;1.17;;;;;;;7.51;100.00;99694.33;1652551;85;22134;-68
2021/11/06 05:52:48;;;;;;;5.25;1.07;;;;;;;7.51;100.00;99698.22;1653622;85;21149;-69
2021/11/06 05:55:16;;;;;;;3.60;0.70;;;;;;;7.50;100.00;99701.70;1653076;85;21061;-69
2021/11/06 05:57:44;;;;;;;7.45;0.93;;;;;;;7.47;100.00;99707.00;1654591;85;21132;-69
2021/11/06 06:00:18;;;;;;;3.30;0.90;;;;;;;7.46;100.00;99714.41;1652720;85;21076;-69
2021/11/06 06:02:46;;;;;;;5.30;1.62;;;;;;;7.45;100.00;99711.39;1633094;85;21113;-69
2021/11/06 06:05:14;;;;;;;5.25;1.10;;;;;;;7.44;100.00;99707.95;1674617;84;21116;-69
2021/11/06 06:07:41;;;;;;;4.83;0.90;;;;;;;7.44;100.00;99703.22;1652657;85;21250;-68
2021/11/06 06:10:13;;;;;;;3.27;1.20;;;;;;;7.44;100.00;99714.91;1652392;85;21089;-69
2021/11/06 06:12:40;;;;;;;8.10;1.50;;;;;;;7.44;100.00;99713.61;1680290;83;21015;-68
2021/11/06 06:15:08;;;;;;;3.12;0.82;;;;;;;7.43;100.00;99708.03;1678869;83;21917;-68
2021/11/06 06:17:37;;;;;;;5.75;1.87;;;;;;;7.42;100.00;99709.75;1663677;84;20970;-69
2021/11/06 06:20:09;;;;;;;3.20;1.20;;;;;;;7.41;100.00;99709.36;1681414;83;20999;-69
2021/11/06 06:22:42;;;;;;;3.12;1.27;;;;;;;7.43;100.00;99695.03;1681067;85;21575;-68
2021/11/06 06:25:09;;;;;;;3.60;1.37;;;;;;;7.47;100.00;99701.81;1679356;83;21113;-69
2021/11/06 06:27:37;;;;;;;4.58;1.17;;;;;;;7.49;100.00;99713.00;1678143;83;21678;-69
2021/11/06 06:30:26;;;;;;;7.25;1.32;;;;;;;7.49;100.00;99707.81;1679810;83;21081;-69
2021/11/06 06:32:54;;;;;;;5.28;1.20;;;;;;;7.51;100.00;99697.77;1660062;84;21065;-69
2021/11/06 06:35:23;;;;;;;4.55;1.30;;;;;;;7.53;100.00;99719.77;1664093;84;21570;-68
2021/11/06 06:37:50;;;;;;;7.83;1.37;;;;;;;7.55;100.00;99720.58;1664111;84;20925;-68
2021/11/06 06:40:17;;;;;;;5.50;1.80;;;;;;;7.55;100.00;99720.58;1632489;85;21060;-68
2021/11/06 06:42:43;;;;;;;6.47;1.45;;;;;;;7.54;100.00;99712.40;1664190;84;21107;-69
2021/11/06 06:45:10;;;;;;;5.00;1.75;;;;;;;7.54;100.00;99717.59;1684424;84;21613;-68
2021/11/06 06:47:37;;;;;;;5.90;1.60;;;;;;;7.54;100.00;99729.29;1662172;83;21003;-68
2021/11/06 06:50:05;;;;;;;4.67;1.60;;;;;;;7.53;100.00;99732.77;1661630;84;21098;-69
2021/11/06 06:52:32;;;;;;;4.42;1.55;;;;;;;7.53;100.00;99735.36;1666482;84;21970;-68
2021/11/06 06:54:59;;;;;;;6.45;2.42;;;;;;;7.55;100.00;99732.27;1669495;82;20991;-68
2021/11/06 06:57:25;;;;;;;2.58;1.40;;;;;;;7.55;100.00;99728.38;1659371;84;21039;-69
2021/11/06 06:59:52;;;;;;;5.10;1.90;;;;;;;7.57;100.00;99742.17;1668777;84;21027;-68
2021/11/06 07:02:20;;;;;;;3.52;1.75;;;;;;;7.60;100.00;99736.86;1665566;84;21617;-68
2021/11/06 07:04:47;;;;;;;5.25;2.02;;;;;;;7.64;100.00;99733.23;1663673;84;21258;-68
2021/11/06 07:07:14;;;;;;;7.33;1.82;;;;;;;7.69;100.00;99733.94;1683055;83;21013;-68
2021/11/06 07:09:41;;;;;;;5.97;1.93;;;;;;;7.74;100.00;99741.58;1658867;85;21501;-69
2021/11/06 07:12:09;;;;;;;5.53;1.87;;;;;;;7.79;100.00;99743.11;1655247;83;20949;-68
2021/11/06 07:14:35;;;;;;;;;;;;;;;7.81;100.00;99753.02;1670399;84;21103;-68
2021/11/06 07:17:02;;;;;;;5.40;1.52;;;;;;;7.84;100.00;99749.00;1668409;84;21055;-68
2021/11/06 07:19:29;;;;;;;3.58;1.40;;;;;;;7.89;100.00;99756.62;1666226;83;21013;-69
2021/11/06 07:21:56;;;;;;;3.23;1.80;;;;;;;7.90;100.00;99755.73;1658021;84;21215;-69
2021/11/06 07:24:23;;;;;;;4.43;1.33;;;;;;;7.90;100.00;99747.06;1666696;84;21016;-68
2021/11/06 07:26:49;;;;;;;4.50;1.37;;;;;;;7.93;100.00;99762.58;1659573;84;21071;-68
2021/11/06 07:29:16;;;;;;;4.12;1.32;;;;;;;7.96;100.00;99763.77;1667548;83;21843;-68
2021/11/06 07:31:43;;;;;;;4.23;1.43;;;;;;;8.00;100.00;99777.04;1660106;84;21020;-68
2021/11/06 07:34:10;;;;;;;6.23;1.60;;;;;;;8.05;100.00;99777.27;1659134;85;21140;-69
2021/11/06 07:36:37;;;;;;;4.78;0.95;;;;;;;8.11;100.00;99777.50;1668313;84;21178;-68
2021/11/06 07:39:04;;;;;;;4.43;0.97;;;;;;;8.16;100.00;99769.08;1657670;84;21100;-69
2021/11/06 07:41:31;;;;;;;5.03;1.77;;;;;;;8.17;100.00;99766.87;1676086;83;21944;-68
2021/11/06 07:43:57;;;;;;;2.12;0.93;;;;;;;8.19;100.00;99771.57;1669670;84;21040;-68
2021/11/06 07:46:27;;;;;;;3.52;1.20;;;;;;;8.18;100.00;99771.19;1664165;84;21584;-68
2021/11/06 07:48:53;;;;;;;5.50;1.25;;;;;;;8.17;100.00;99775.97;1664516;84;21045;-69
2021/11/06 07:51:22;;;;;;;2.87;1.27;;;;;;;8.16;100.00;99772.98;1657413;84;21025;-68
2021/11/06 07:53:48;;;;;;;4.65;1.17;;;;;;;8.07;100.00;99757.73;1640583;85;21702;-68
2021/11/06 07:56:15;;;;;;;6.83;1.17;;;;;;;8.20;100.00;99764.61;1665361;84;21099;-68
2021/11/06 07:58:42;;;;;;;3.97;1.33;;;;;;;8.21;100.00;99768.47;1695986;82;21539;-68
2021/11/06 08:01:09;;;;;;;3.10;1.27;;;;;;;8.23;100.00;99776.20;1660412;84;21866;-69
2021/11/06 08:03:35;;;;;;;3.33;1.00;;;;;;;8.23;100.00;99764.06;1646529;84;21068;-68
2021/11/06 08:06:05;;;;;;;2.45;0.78;;;;;;;8.24;100.00;99776.16;1659081;84;21037;-68
2021/11/06 08:08:31;;;;;;;3.27;0.93;;;;;;;8.29;100.00;99769.03;1663046;84;20961;-68
2021/11/06 08:10:58;;;;;;;2.55;1.12;;;;;;;8.35;100.00;99774.92;1682456;83;21032;-67
2021/11/06 08:13:26;;;;;;;6.47;1.53;;;;;;;8.37;100.00;99765.28;1667593;84;21099;-67
2021/11/06 08:15:52;;;;;;;;;;;;;;;8.41;100.00;99761.71;1646342;83;21431;-67
2021/11/06 08:18:19;;;;;;;4.80;0.90;;;;;;;8.45;100.00;99765.88;1647511;85;21076;-67
2021/11/06 08:20:46;;;;;;;1.50;0.80;;;;;;;8.44;99.94;99758.98;1651772;84;21729;-67
2021/11/06 08:23:13;;;;;;;1.75;0.70;;;;;;;8.44;99.87;99772.00;1650696;85;21001;-67
2021/11/06 08:25:40;;;;;;;1.98;0.80;;;;;;;8.42;99.85;99773.80;1655945;84;20985;-67
2021/11/06 08:28:06;;;;;;;2.37;0.98;;;;;;;8.44;99.88;99781.11;1696325;83;21027;-68
2021/11/06 08:30:33;;;;;;;2.20;0.90;;;;;;;8.42;99.84;99776.41;1669740;84;21013;-67
2021/11/06 08:33:05;;;;;;;3.85;1.15;;;;;;;8.39;99.71;99789.53;1634564;84;21058;-70
2021/11/06 08:35:33;;;;;;;1.95;1.07;;;;;;;8.32;99.67;99764.60;1628357;86;20987;-68
2021/11/06 08:38:01;;;;;;;3.00;1.10;;;;;;;8.47;100.00;99777.09;1636193;86;21723;-69
2021/11/06 08:40:28;;;;;;;1.82;1.00;;;;;;;8.47;100.00;99777.09;1635728;86;21664;-67
2021/11/06 08:42:59;;;;;;;3.20;0.85;;;;;;;8.55;100.00;99781.55;1643212;86;21082;-79
2021/11/06 08:45:25;;;;;;;3.50;1.10;;;;;;;8.69;100.00;99780.56;1636521;86;21872;-69
2021/11/06 08:47:52;;;;;;;2.45;0.85;;;;;;;8.80;100.00;99781.92;1638087;86;21129;-71
2021/11/06 08:50:23;;;;;;;1.13;0.80;;;;;;;8.83;99.78;99793.51;1640778;86;21032;-70
2021/11/06 08:52:53;;;;;;;2.40;1.02;;;;;;;8.88;99.77;99782.47;1641194;86;21466;-70
2021/11/06 08:55:20;;;;;;;2.95;1.30;;;;;;;9.01;99.86;99778.45;1641100;85;21093;-70
2021/11/06 08:57:48;;;;;;;2.87;0.60;;;;;;;9.13;99.82;99777.97;1635275;86;21066;-70
2021/11/06 09:00:25;;;;;;;4.72;0.90;;;;;;;9.13;99.35;99782.31;1620744;86;21041;-69
2021/11/06 09:02:49;;;;;;;1.60;0.70;;;;;;;9.09;99.14;99788.56;1618785;86;21088;-69
2021/11/06 09:05:16;;;;;;;1.55;0.60;;;;;;;9.08;99.29;99796.84;1610415;86;21104;-69
2021/11/06 09:07:43;;;;;;;1.22;0.70;;;;;;;9.10;99.29;99801.55;1609879;87;21100;-72
2021/11/06 09:10:14;;;;;;;3.27;1.20;;;;;;;9.07;99.15;99793.82;1610131;87;21770;-71
2021/11/06 09:12:41;;;;;;;2.67;1.02;;;;;;;8.95;98.75;99796.92;1629572;86;21047;-71
2021/11/06 09:15:08;;;;;;;11.97;1.42;;;;;;;8.89;99.02;99800.61;1609760;87;21110;-71
2021/11/06 09:17:35;;;;;;;12.45;2.35;;;;;;;8.82;98.90;99798.30;1609422;88;21084;-73
2021/11/06 09:20:05;;;;;;;24.12;2.83;;;;;;;8.78;99.07;99805.85;1608826;86;22472;-71
2021/11/06 09:22:32;;;;;;;10.35;1.95;;;;;;;8.79;99.16;99807.53;1628694;86;21092;-71
2021/11/06 09:24:58;;;;;;;6.17;1.23;;;;;;;8.78;99.19;99813.66;1612219;87;21109;-69
2021/11/06 09:27:25;;;;;;;2.22;0.82;;;;;;;8.78;99.17;99801.95;1630778;86;21550;-71
2021/11/06 09:29:51;;;;;;;2.80;0.88;;;;;;;8.76;99.02;99807.66;1620436;85;21084;-71
2021/11/06 09:32:18;;;;;;;2.00;0.90;;;;;;;8.77;99.15;99805.47;1632931;84;21130;-71
2021/11/06 09:34:46;;;;;;;4.22;1.30;;;;;;;8.79;99.33;99817.49;1663299;84;21020;-72
2021/11/06 09:37:13;;;;;;;2.55;1.60;;;;;;;8.85;99.27;99809.89;1666650;84;21086;-73
2021/11/06 09:39:40;;;;;;;3.75;1.10;;;;;;;8.91;99.31;99813.59;1667011;84;21029;-73
2021/11/06 09:42:09;;;;;;;5.17;1.42;;;;;;;8.90;98.95;99814.48;1661866;84;21036;-69
2021/11/06 09:44:36;;;;;;;19.05;2.08;;;;;;;8.85;98.82;99809.89;1662537;84;21111;-72
2021/11/06 09:47:08;;;;;;;;;;;;;;;8.82;98.79;99811.31;1668067;84;21060;-70
2021/11/06 09:49:33;;;;;;;53.15;8.08;;;;;;;8.85;99.07;99816.41;1665582;84;20146;-71
2021/11/06 09:52:00;;;;;;;50.48;6.33;;;;;;;8.88;99.15;99811.11;1663045;84;21639;-70
2021/11/06 09:54:27;;;;;;;44.55;8.45;;;;;;;8.90;98.95;99806.66;1664658;84;21019;-71
2021/11/06 09:56:54;;;;;;;98.62;13.15;;;;;;;8.99;98.92;99794.61;1670512;84;21471;-71
2021/11/06 09:59:20;;;;;;;38.92;7.45;;;;;;;8.96;98.62;99809.02;1673159;84;21048;-71
2021/11/06 10:01:47;;;;;;;113.77;19.80;;;;;;;8.99;98.76;99785.49;1666914;84;21653;-70
2021/11/06 10:04:13;;;;;;;92.02;21.37;;;;;;;9.09;99.07;99812.84;1656192;83;21056;-71
2021/11/06 10:06:44;;;;;;;76.00;13.70;;;;;;;9.22;99.04;99820.20;1661590;84;21033;-72
2021/11/06 10:09:09;;;;;;;174.90;32.65;;;;;;;9.24;98.80;99819.20;1695447;82;21463;-72
2021/11/06 10:11:36;;;;;;;165.70;34.67;;;;;;;9.28;98.69;99827.76;1668121;84;20988;-72
2021/11/06 10:14:07;;;;;;;46.83;11.33;;;;;;;9.26;98.60;99819.15;1689293;83;21016;-71
2021/11/06 10:16:56;;;;;;;88.72;19.25;;;;;;;9.27;98.57;99821.70;1690557;83;21579;-68
2021/11/06 10:19:30;;;;;;;80.17;16.45;;;;;;;9.28;98.42;99822.55;1661585;84;20961;-68
2021/11/06 10:22:11;;;;;;;151.07;30.30;;;;;;;9.25;98.28;99817.46;1662142;84;21590;-68
2021/11/06 10:24:45;;;;;;;69.25;14.10;;;;;;;9.26;98.26;99811.33;1669984;84;20959;-73
2021/11/06 10:27:18;;;;;;;107.27;19.35;;;;;;;9.27;98.30;99818.22;1662350;84;21001;-72
2021/11/06 10:30:18;;;;;;;32.05;7.47;;;;;;;9.36;98.40;99818.72;1808745;77;22806;-71
2021/11/06 10:33:14;;;;;;;23.75;6.42;;;;;;;9.40;98.27;99818.13;1810845;78;21024;-72
2021/11/06 10:35:47;;;;;;;177.27;33.15;;;;;;;9.48;98.39;99801.72;1810178;78;21933;-69
2021/11/06 10:38:21;;;;;;;40.23;9.45;;;;;;;9.52;98.16;99802.44;1782617;78;21519;-70
2021/11/06 10:40:59;;;;;;;167.18;27.73;;;;;;;9.51;97.91;99810.72;1812588;78;21104;-70
2021/11/06 10:43:25;;;;;;;12.70;3.35;;;;;;;9.40;97.32;99798.58;1810348;77;20943;-70
2021/11/06 10:46:00;;;;;;;9.43;1.82;;;;;;;9.30;97.41;99797.25;1813788;78;21124;-72
2021/11/06 10:48:32;;;;;;;10.00;2.05;;;;;;;9.22;97.35;99801.95;1806021;78;21070;-71
2021/11/06 10:51:08;;;;;;;9.53;2.00;;;;;;;9.17;97.46;99799.53;1811706;78;21021;-72
2021/11/06 10:53:52;;;;;;;8.18;1.77;;;;;;;9.16;97.56;99798.69;1810545;78;20999;-72
2021/11/06 10:56:42;;;;;;;5.80;1.90;;;;;;;9.13;97.49;99792.30;1810182;78;21089;-71
2021/11/06 10:59:15;;;;;;;7.37;2.67;;;;;;;9.06;97.25;99797.34;1772530;80;21086;-82
2021/11/06 11:01:46;;;;;;;5.65;1.80;;;;;;;8.97;97.29;99795.12;1773373;80;21160;-87
2021/11/06 11:04:19;;;;;;;3.90;1.32;;;;;;;8.95;97.47;99794.31;1776905;80;21020;-85
2021/11/06 11:06:56;;;;;;;6.67;1.55;;;;;;;8.96;97.61;99809.02;1762813;80;21101;-83
2021/11/06 11:09:30;;;;;;;4.87;1.35;;;;;;;8.96;97.57;99806.42;1776586;78;21467;-85
2021/11/06 11:12:00;;;;;;;10.30;1.85;;;;;;;8.90;97.43;99800.16;1773637;78;21043;-80
2021/11/06 11:14:30;;;;;;;2.67;1.22;;;;;;;8.88;97.55;99805.90;1780651;79;21670;-84
2021/11/06 11:17:04;;;;;;;5.03;1.40;;;;;;;8.82;97.35;99803.51;1782256;78;21163;-82
2021/11/06 11:19:44;;;;;;;3.85;1.40;;;;;;;8.75;97.30;99806.81;1778046;80;20990;-83
2021/11/06 11:22:31;;;;;;;4.70;1.37;;;;;;;8.72;97.47;99812.14;1754581;81;21800;-83
2021/11/06 11:24:58;;;;;;;4.70;1.10;;;;;;;8.69;97.46;99806.59;1780532;80;21674;-83
2021/11/06 11:27:27;;;;;;;2.52;1.45;;;;;;;8.69;97.51;99810.50;1780622;80;21568;-85
2021/11/06 11:29:54;;;;;;;2.70;1.30;;;;;;;8.70;97.63;99801.77;1784769;78;21081;-85
2021/11/06 11:32:21;;;;;;;3.92;1.12;;;;;;;8.70;97.58;99803.08;1782346;80;20970;-82
2021/11/06 11:34:49;;;;;;;3.20;1.30;;;;;;;8.69;97.52;99802.69;1785409;79;22671;-80
2021/11/06 11:37:16;;;;;;;5.75;1.57;;;;;;;8.68;97.56;99812.72;1784019;80;21562;-84
2021/11/06 11:39:43;;;;;;;4.97;1.42;;;;;;;8.67;97.53;99812.30;1780625;80;21494;-81
2021/11/06 11:42:39;;;;;;;;;;;;;;;8.67;97.58;99811.00;1773597;79;21259;-77
2021/11/06 11:45:29;;;;;;;5.17;2.47;;;;;;;8.66;97.46;99805.41;1770293;80;20112;-80
2021/11/06 11:48:01;;;;;;;5.53;1.70;;;;;;;8.63;97.42;99812.04;1753573;81;21072;-80
2021/11/06 11:50:31;;;;;;;4.50;1.42;;;;;;;8.58;97.34;99818.33;1780402;79;21045;-80
2021/11/06 11:53:02;;;;;;;5.83;2.10;;;;;;;8.51;97.34;99816.38;1756459;81;21134;-81